createdAt,value
2023-04-05T00:00:39.531Z,21.90
2023-04-05T00:03:07.034Z,21.80
2023-04-05T00:05:34.698Z,21.80
2023-04-05T00:08:02.890Z,21.80
2023-04-05T00:10:31.333Z,21.80
2023-04-05T00:12:59.124Z,21.80
2023-04-05T00:15:28.122Z,21.90
2023-04-05T00:17:55.625Z,21.80
2023-04-05T00:20:22.655Z,21.90
2023-04-05T00:22:50.906Z,21.80
2023-04-05T00:25:18.485Z,21.80
2023-04-05T00:27:45.766Z,21.80
2023-04-05T00:30:13.480Z,21.90
2023-04-05T00:32:40.696Z,21.90
2023-04-05T00:35:08.029Z,21.80
2023-04-05T00:37:37.864Z,21.80
2023-04-05T00:40:05.358Z,21.80
2023-04-05T00:42:32.391Z,21.80
2023-04-05T00:44:59.418Z,21.80
2023-04-05T00:47:27.396Z,21.80
2023-04-05T00:49:54.480Z,21.80
2023-04-05T00:52:23.538Z,21.80
2023-04-05T00:54:51.917Z,21.80
2023-04-05T00:57:19.123Z,21.80
2023-04-05T00:59:46.487Z,21.80
2023-04-05T01:02:34.068Z,21.80
2023-04-05T01:05:09.952Z,21.80
2023-04-05T01:07:48.518Z,21.80
2023-04-05T01:10:21.104Z,21.70
2023-04-05T01:12:48.984Z,21.70
2023-04-05T01:15:16.240Z,21.80
2023-04-05T01:17:45.146Z,21.80
2023-04-05T01:20:13.189Z,21.80
2023-04-05T01:23:18.327Z,21.80
2023-04-05T01:26:25.060Z,21.70
2023-04-05T01:29:32.323Z,21.70
2023-04-05T01:32:38.890Z,21.80
2023-04-05T01:35:24.812Z,21.70
2023-04-05T01:37:59.756Z,21.70
2023-04-05T01:40:27.620Z,21.70
2023-04-05T01:42:54.669Z,21.70
2023-04-05T01:45:21.802Z,21.70
2023-04-05T01:47:48.920Z,21.70
2023-04-05T01:50:16.125Z,21.70
2023-04-05T01:52:43.208Z,21.70
2023-04-05T01:55:10.492Z,21.70
2023-04-05T01:57:39.209Z,21.70
2023-04-05T02:00:06.856Z,21.60
2023-04-05T02:02:33.949Z,21.70
2023-04-05T02:05:01.144Z,21.70
2023-04-05T02:07:28.226Z,21.60
2023-04-05T02:09:55.430Z,21.70
2023-04-05T02:12:22.978Z,21.60
2023-04-05T02:14:51.683Z,21.70
2023-04-05T02:17:19.070Z,21.60
2023-04-05T02:19:47.093Z,21.60
2023-04-05T02:22:14.586Z,21.70
2023-04-05T02:24:41.772Z,21.70
2023-04-05T02:27:08.986Z,21.70
2023-04-05T02:29:36.067Z,21.70
2023-04-05T02:32:03.274Z,21.60
2023-04-05T02:34:31.290Z,21.70
2023-04-05T02:36:59.039Z,21.60
2023-04-05T02:39:26.598Z,21.60
2023-04-05T02:41:53.640Z,21.60
2023-04-05T02:44:20.695Z,21.60
2023-04-05T02:46:47.780Z,21.60
2023-04-05T02:49:14.929Z,21.60
2023-04-05T02:51:41.952Z,21.60
2023-04-05T02:54:09.008Z,21.60
2023-04-05T02:56:36.824Z,21.60
2023-04-05T02:59:04.128Z,21.60
2023-04-05T03:01:32.654Z,21.60
2023-04-05T03:03:59.932Z,21.60
2023-04-05T03:06:27.700Z,21.60
2023-04-05T03:08:56.094Z,21.60
2023-04-05T03:11:24.393Z,21.60
2023-04-05T03:13:51.443Z,21.60
2023-04-05T03:16:20.354Z,21.60
2023-04-05T03:18:47.569Z,21.60
2023-04-05T03:21:18.101Z,21.60
2023-04-05T03:23:50.467Z,21.60
2023-04-05T03:26:17.611Z,21.60
2023-04-05T03:28:45.355Z,21.60
2023-04-05T03:31:12.624Z,21.50
2023-04-05T03:33:39.760Z,21.60
2023-04-05T03:36:07.089Z,21.50
2023-04-05T03:38:34.530Z,21.60
2023-04-05T03:41:03.303Z,21.60
2023-04-05T03:43:30.896Z,21.60
2023-04-05T03:45:58.058Z,21.50
2023-04-05T03:48:25.171Z,21.50
2023-04-05T03:50:52.219Z,21.50
2023-04-05T03:53:19.349Z,21.50
2023-04-05T03:55:49.648Z,21.50
2023-04-05T03:58:17.669Z,21.50
2023-04-05T04:00:45.028Z,21.50
2023-04-05T04:03:12.228Z,21.50
2023-04-05T04:05:39.929Z,21.50
2023-04-05T04:08:07.314Z,21.50
2023-04-05T04:10:36.019Z,21.50
2023-04-05T04:13:03.171Z,21.50
2023-04-05T04:15:30.255Z,21.50
2023-04-05T04:17:57.507Z,21.50
2023-04-05T04:20:24.713Z,21.50
2023-04-05T04:22:53.971Z,21.50
2023-04-05T04:25:22.411Z,21.50
2023-04-05T04:27:50.470Z,21.50
2023-04-05T04:30:17.544Z,21.50
2023-04-05T04:32:52.329Z,21.50
2023-04-05T04:35:25.282Z,21.50
2023-04-05T04:38:00.504Z,21.50
2023-04-05T04:40:46.679Z,21.50
2023-04-05T04:43:17.571Z,21.50
2023-04-05T04:45:49.011Z,21.50
2023-04-05T04:48:19.131Z,21.50
2023-04-05T04:50:47.268Z,21.40
2023-04-05T04:53:17.510Z,21.40
2023-04-05T04:55:45.014Z,21.40
2023-04-05T04:58:13.395Z,21.40
2023-04-05T05:00:44.840Z,21.40
2023-04-05T05:03:13.617Z,21.40
2023-04-05T05:05:45.367Z,21.50
2023-04-05T05:08:12.846Z,21.50
2023-04-05T05:10:40.197Z,21.50
2023-04-05T05:13:07.415Z,21.60
2023-04-05T05:15:34.578Z,21.60
2023-04-05T05:18:01.669Z,21.60
2023-04-05T05:20:28.827Z,21.70
2023-04-05T05:22:56.450Z,21.70
2023-04-05T05:25:23.493Z,21.70
2023-04-05T05:27:51.281Z,21.80
2023-04-05T05:30:19.358Z,21.80
2023-04-05T05:32:47.423Z,21.80
2023-04-05T05:35:14.803Z,21.90
2023-04-05T05:37:42.045Z,21.90
2023-04-05T05:40:10.310Z,22.00
2023-04-05T05:42:37.394Z,22.00
2023-04-05T05:45:06.426Z,22.10
2023-04-05T05:47:33.684Z,22.10
2023-04-05T05:50:00.847Z,22.20
2023-04-05T05:52:27.934Z,22.30
2023-04-05T05:54:55.043Z,22.40
2023-04-05T05:57:23.378Z,22.40
2023-04-05T05:59:50.624Z,22.40
2023-04-05T06:02:17.772Z,22.50
2023-04-05T06:04:45.637Z,22.50
2023-04-05T06:07:12.787Z,22.60
2023-04-05T06:09:40.901Z,22.60
2023-04-05T06:12:07.996Z,22.60
2023-04-05T06:14:35.384Z,22.70
2023-04-05T06:17:02.456Z,22.70
2023-04-05T06:19:29.551Z,22.80
2023-04-05T06:21:57.189Z,22.90
2023-04-05T06:24:24.272Z,22.90
2023-04-05T06:26:52.212Z,22.90
2023-04-05T06:29:19.260Z,23.00
2023-04-05T06:31:48.475Z,23.00
2023-04-05T06:34:16.531Z,23.10
2023-04-05T06:36:43.660Z,23.10
2023-04-05T06:39:10.742Z,23.20
2023-04-05T06:41:37.761Z,23.30
2023-04-05T06:44:04.840Z,23.30
2023-04-05T06:46:32.837Z,23.30
2023-04-05T06:49:01.670Z,23.40
2023-04-05T06:51:31.068Z,23.40
2023-04-05T06:53:58.316Z,23.40
2023-04-05T06:56:25.397Z,23.50
2023-04-05T06:58:53.261Z,23.60
2023-04-05T07:01:20.483Z,23.60
2023-04-05T07:03:47.884Z,23.60
2023-04-05T07:06:15.747Z,23.60
2023-04-05T07:08:43.864Z,23.70
2023-04-05T07:11:13.204Z,23.70
2023-04-05T07:13:40.237Z,23.70
2023-04-05T07:16:07.586Z,23.70
2023-04-05T07:18:34.798Z,23.70
2023-04-05T07:21:04.107Z,23.70
2023-04-05T07:23:31.640Z,23.80
2023-04-05T07:26:04.967Z,23.90
2023-04-05T07:28:36.212Z,23.90
2023-04-05T07:31:05.830Z,23.90
2023-04-05T07:33:33.081Z,23.90
2023-04-05T07:36:00.723Z,23.90
2023-04-05T07:38:29.360Z,23.90
2023-04-05T07:40:56.573Z,23.90
2023-04-05T07:43:25.982Z,24.00
2023-04-05T07:45:53.777Z,24.00
2023-04-05T07:48:21.200Z,24.00
2023-04-05T07:50:49.581Z,24.10
2023-04-05T07:53:17.080Z,24.10
2023-04-05T07:55:44.759Z,24.10
2023-04-05T07:58:11.896Z,24.10
2023-04-05T08:00:39.684Z,24.20
2023-04-05T08:03:07.126Z,24.20
2023-04-05T08:05:34.224Z,24.20
2023-04-05T08:08:02.251Z,24.30
2023-04-05T08:10:29.405Z,24.30
2023-04-05T08:12:56.489Z,24.30
2023-04-05T08:15:23.515Z,24.30
2023-04-05T08:17:50.676Z,24.30
2023-04-05T08:20:18.345Z,24.30
2023-04-05T08:22:45.487Z,24.40
2023-04-05T08:25:12.736Z,24.40
2023-04-05T08:27:39.794Z,24.40
2023-04-05T08:30:07.890Z,24.40
2023-04-05T08:32:35.966Z,24.50
2023-04-05T08:35:03.293Z,24.50
2023-04-05T08:37:35.686Z,24.50
2023-04-05T08:40:04.644Z,24.50
2023-04-05T08:42:44.514Z,24.60
2023-04-05T08:45:12.198Z,24.60
2023-04-05T08:47:39.497Z,24.60
2023-04-05T08:50:07.329Z,24.60
2023-04-05T08:52:38.124Z,24.60
2023-04-05T08:55:06.677Z,24.70
2023-04-05T08:57:37.461Z,24.70
2023-04-05T09:00:05.482Z,24.70
2023-04-05T09:02:33.885Z,24.70
2023-04-05T09:05:02.788Z,24.80
2023-04-05T09:07:31.549Z,24.80
2023-04-05T09:10:00.898Z,24.80
2023-04-05T09:12:29.769Z,24.80
2023-04-05T09:14:57.631Z,24.80
2023-04-05T09:17:25.190Z,24.80
2023-04-05T09:19:53.078Z,24.90
2023-04-05T09:22:20.129Z,24.90
2023-04-05T09:24:48.212Z,24.90
2023-04-05T09:27:17.449Z,24.90
2023-04-05T09:29:46.528Z,24.90
2023-04-05T09:32:15.116Z,24.90
2023-04-05T09:34:43.839Z,24.90
2023-04-05T09:37:20.123Z,24.90
2023-04-05T09:39:52.647Z,24.90
2023-04-05T09:42:23.396Z,25.00
2023-04-05T09:45:03.163Z,25.00
2023-04-05T09:47:32.894Z,25.00
2023-04-05T09:50:01.447Z,25.00
2023-04-05T09:52:32.253Z,25.10
2023-04-05T09:55:03.173Z,25.10
2023-04-05T09:57:37.711Z,25.10
2023-04-05T10:00:07.022Z,25.00
2023-04-05T10:02:38.717Z,25.10
2023-04-05T10:05:07.794Z,25.10
2023-04-05T10:07:36.103Z,25.10
2023-04-05T10:10:04.537Z,25.10
2023-04-05T10:12:33.068Z,25.10
2023-04-05T10:15:00.459Z,25.10
2023-04-05T10:17:33.976Z,25.10
2023-04-05T10:20:24.707Z,25.20
2023-04-05T10:23:22.685Z,25.20
2023-04-05T10:26:11.583Z,25.20
2023-04-05T10:28:43.647Z,25.20
2023-04-05T10:31:37.036Z,25.20
2023-04-05T10:34:07.251Z,25.30
2023-04-05T10:36:46.340Z,25.30
2023-04-05T10:39:44.308Z,25.30
2023-04-05T10:42:22.347Z,25.30
2023-04-05T10:44:55.613Z,25.20
2023-04-05T10:47:28.180Z,25.00
2023-04-05T10:50:00.349Z,24.90
2023-04-05T10:52:28.883Z,24.80
2023-04-05T10:55:00.209Z,24.90
2023-04-05T10:57:28.122Z,24.90
2023-04-05T10:59:56.461Z,24.90
2023-04-05T11:02:24.161Z,25.00
2023-04-05T11:04:56.887Z,25.10
2023-04-05T11:07:24.382Z,25.10
2023-04-05T11:10:01.384Z,25.10
2023-04-05T11:13:07.361Z,25.20
2023-04-05T11:15:35.660Z,25.20
2023-04-05T11:18:11.940Z,25.20
2023-04-05T11:20:56.101Z,25.30
2023-04-05T11:23:25.411Z,25.30
2023-04-05T11:26:03.776Z,25.30
2023-04-05T11:28:40.775Z,25.40
2023-04-05T11:31:23.067Z,25.40
2023-04-05T11:34:10.266Z,25.40
2023-04-05T11:36:48.072Z,25.40
2023-04-05T11:39:24.121Z,25.40
2023-04-05T11:42:03.775Z,25.50
2023-04-05T11:44:44.904Z,25.50
2023-04-05T11:47:12.967Z,25.50
2023-04-05T11:49:42.224Z,25.50
2023-04-05T11:52:18.499Z,25.50
2023-04-05T11:54:47.151Z,25.60
2023-04-05T11:57:23.023Z,25.60
2023-04-05T11:59:52.401Z,25.60
2023-04-05T12:02:20.489Z,25.70
2023-04-05T12:04:55.943Z,25.70
2023-04-05T12:07:27.170Z,25.70
2023-04-05T12:10:11.172Z,25.70
2023-04-05T12:12:40.762Z,25.80
2023-04-05T12:15:11.102Z,25.80
2023-04-05T12:17:46.466Z,25.90
2023-04-05T12:20:16.269Z,25.90
2023-04-05T12:22:45.141Z,26.00
2023-04-05T12:25:13.369Z,26.00
2023-04-05T12:27:41.363Z,26.00
2023-04-05T12:30:15.118Z,26.10
2023-04-05T12:32:47.951Z,26.10
2023-04-05T12:35:33.150Z,26.10
2023-04-05T12:38:05.851Z,26.10
2023-04-05T12:40:37.708Z,26.20
2023-04-05T12:43:08.951Z,26.20
2023-04-05T12:45:44.223Z,26.20
2023-04-05T12:48:16.200Z,26.30
2023-04-05T12:50:46.113Z,26.30
2023-04-05T12:53:18.670Z,26.20
2023-04-05T12:55:50.132Z,26.20
2023-04-05T12:58:18.189Z,26.30
2023-04-05T13:00:46.804Z,26.30
2023-04-05T13:03:20.749Z,26.30
2023-04-05T13:05:49.550Z,26.30
2023-04-05T13:08:20.435Z,26.30
2023-04-05T13:10:50.101Z,26.30
2023-04-05T13:13:18.391Z,26.30
2023-04-05T13:15:45.985Z,26.30
2023-04-05T13:18:16.443Z,26.30
2023-04-05T13:20:43.864Z,26.30
2023-04-05T13:23:12.307Z,26.30
2023-04-05T13:25:45.625Z,26.40
2023-04-05T13:28:12.983Z,26.40
2023-04-05T13:30:40.080Z,26.40
2023-04-05T13:33:07.388Z,26.40
2023-04-05T13:35:34.573Z,26.40
2023-04-05T13:38:04.232Z,26.40
2023-04-05T13:40:32.549Z,26.40
2023-04-05T13:43:00.079Z,26.30
2023-04-05T13:45:28.670Z,26.40
2023-04-05T13:47:56.104Z,26.30
2023-04-05T13:50:23.405Z,26.30
2023-04-05T13:52:51.516Z,26.30
2023-04-05T13:55:18.940Z,26.40
2023-04-05T13:57:46.224Z,26.30
2023-04-05T14:00:14.489Z,26.30
2023-04-05T14:02:42.016Z,26.30
2023-04-05T14:05:09.479Z,26.30
2023-04-05T14:07:37.755Z,26.40
2023-04-05T14:10:06.768Z,26.40
2023-04-05T14:12:34.807Z,26.40
2023-04-05T14:15:01.955Z,26.30
2023-04-05T14:17:29.077Z,26.40
2023-04-05T14:19:57.349Z,26.30
2023-04-05T14:22:24.501Z,26.30
2023-04-05T14:24:51.735Z,26.20
2023-04-05T14:27:22.307Z,26.30
2023-04-05T14:29:50.037Z,26.20
2023-04-05T14:32:17.429Z,26.20
2023-04-05T14:34:44.482Z,26.10
2023-04-05T14:37:11.638Z,26.20
2023-04-05T14:39:38.744Z,26.10
2023-04-05T14:42:06.568Z,26.10
2023-04-05T14:44:33.756Z,26.10
2023-04-05T14:47:01.414Z,26.10
2023-04-05T14:49:28.483Z,26.10
2023-04-05T14:51:55.583Z,26.10
2023-04-05T14:54:22.817Z,26.10
2023-04-05T14:56:49.948Z,26.00
2023-04-05T14:59:17.155Z,26.00
2023-04-05T15:01:45.653Z,26.00
2023-04-05T15:04:13.238Z,25.90
2023-04-05T15:06:41.291Z,25.90
2023-04-05T15:09:08.378Z,25.90
2023-04-05T15:11:39.359Z,25.90
2023-04-05T15:14:08.570Z,25.80
2023-04-05T15:16:38.590Z,25.80
2023-04-05T15:19:05.696Z,25.80
2023-04-05T15:21:33.440Z,25.70
2023-04-05T15:24:02.386Z,25.70
2023-04-05T15:26:29.437Z,25.70
2023-04-05T15:28:56.571Z,25.70
2023-04-05T15:31:23.675Z,25.60
2023-04-05T15:33:50.908Z,25.60
2023-04-05T15:36:18.072Z,25.50
2023-04-05T15:38:46.109Z,25.50
2023-04-05T15:41:13.731Z,25.40
2023-04-05T15:43:40.960Z,25.40
2023-04-05T15:46:08.099Z,25.40
2023-04-05T15:48:35.181Z,25.30
2023-04-05T15:51:02.292Z,25.30
2023-04-05T15:53:29.432Z,25.30
2023-04-05T15:55:58.481Z,25.30
2023-04-05T15:58:25.631Z,25.30
2023-04-05T16:00:52.722Z,25.20
2023-04-05T16:03:19.987Z,25.30
2023-04-05T16:05:47.110Z,25.30
2023-04-05T16:08:14.153Z,25.20
2023-04-05T16:10:42.705Z,25.20
2023-04-05T16:13:09.763Z,25.20
2023-04-05T16:15:36.927Z,25.20
2023-04-05T16:18:04.128Z,25.20
2023-04-05T16:20:31.468Z,25.10
2023-04-05T16:22:58.531Z,25.10
2023-04-05T16:25:25.677Z,25.10
2023-04-05T16:27:52.742Z,25.10
2023-04-05T16:30:20.643Z,25.00
2023-04-05T16:32:49.905Z,25.00
2023-04-05T16:35:17.127Z,25.00
2023-04-05T16:37:44.287Z,24.90
2023-04-05T16:40:12.014Z,24.90
2023-04-05T16:42:39.531Z,24.90
2023-04-05T16:45:07.287Z,24.80
2023-04-05T16:47:34.397Z,24.70
2023-04-05T16:50:01.761Z,24.70
2023-04-05T16:52:28.989Z,24.70
2023-04-05T16:54:57.471Z,24.60
2023-04-05T16:57:24.562Z,24.60
2023-04-05T16:59:51.701Z,24.50
2023-04-05T17:02:19.018Z,24.50
2023-04-05T17:04:47.242Z,24.40
2023-04-05T17:07:14.344Z,24.40
2023-04-05T17:09:41.497Z,24.30
2023-04-05T17:12:10.140Z,24.30
2023-04-05T17:14:39.277Z,24.20
2023-04-05T17:17:06.426Z,24.20
2023-04-05T17:19:33.480Z,24.10
2023-04-05T17:22:00.705Z,24.10
2023-04-05T17:24:28.018Z,24.10
2023-04-05T17:26:55.108Z,24.00
2023-04-05T17:29:22.242Z,24.00
2023-04-05T17:31:49.413Z,23.90
2023-04-05T17:34:16.926Z,23.90
2023-04-05T17:36:46.607Z,23.90
2023-04-05T17:39:15.228Z,23.80
2023-04-05T17:41:42.724Z,23.80
2023-04-05T17:44:10.090Z,23.80
2023-04-05T17:46:41.672Z,23.70
2023-04-05T17:49:13.931Z,23.70
2023-04-05T17:51:41.274Z,23.70
2023-04-05T17:54:08.358Z,23.60
2023-04-05T17:56:35.448Z,23.60
2023-04-05T17:59:02.613Z,23.60
2023-04-05T18:01:29.866Z,23.50
2023-04-05T18:03:57.211Z,23.50
2023-04-05T18:06:24.343Z,23.50
2023-04-05T18:08:51.527Z,23.50
2023-04-05T18:11:18.678Z,23.40
2023-04-05T18:13:45.975Z,23.40
2023-04-05T18:16:13.088Z,23.40
2023-04-05T18:18:40.157Z,23.40
2023-04-05T18:21:07.198Z,23.40
2023-04-05T18:23:34.357Z,23.30
2023-04-05T18:26:07.296Z,23.30
2023-04-05T18:28:34.412Z,23.30
2023-04-05T18:31:01.640Z,23.30
2023-04-05T18:33:28.744Z,23.20
2023-04-05T18:35:55.916Z,23.20
2023-04-05T18:38:22.990Z,23.20
2023-04-05T18:40:50.066Z,23.20
2023-04-05T18:43:17.914Z,23.20
2023-04-05T18:45:45.160Z,23.20
2023-04-05T18:48:12.315Z,23.10
2023-04-05T18:50:39.428Z,23.10
2023-04-05T18:53:07.055Z,23.10
2023-04-05T18:55:34.192Z,23.10
2023-04-05T18:58:01.441Z,23.10
2023-04-05T19:00:28.660Z,23.10
2023-04-05T19:02:55.842Z,23.10
2023-04-05T19:05:23.021Z,23.00
2023-04-05T19:07:50.074Z,23.00
2023-04-05T19:12:49.413Z,23.00
2023-04-05T19:15:17.136Z,23.00
2023-04-05T19:17:44.259Z,22.90
2023-04-05T19:20:11.777Z,23.00
2023-04-05T19:22:38.881Z,22.90
2023-04-05T19:25:09.117Z,22.90
2023-04-05T19:27:36.768Z,22.90
2023-04-05T19:30:04.860Z,22.90
2023-04-05T19:32:32.024Z,22.90
2023-04-05T19:34:59.717Z,22.80
2023-04-05T19:37:26.856Z,22.80
2023-04-05T19:39:54.523Z,22.80
2023-04-05T19:42:21.946Z,22.80
2023-04-05T19:44:51.593Z,22.80
2023-04-05T19:47:22.537Z,22.80
2023-04-05T19:49:51.358Z,22.70
2023-04-05T19:52:40.981Z,22.70
2023-04-05T19:55:38.460Z,22.70
2023-04-05T19:58:10.570Z,22.70
2023-04-05T20:00:52.303Z,22.70
2023-04-05T20:03:30.542Z,22.70
2023-04-05T20:06:06.765Z,22.60
2023-04-05T20:08:37.527Z,22.60
2023-04-05T20:11:14.093Z,22.60
2023-04-05T20:13:44.971Z,22.60
2023-04-05T20:16:13.725Z,22.60
2023-04-05T20:18:46.398Z,22.60
2023-04-05T20:21:14.328Z,22.60
2023-04-05T20:23:45.057Z,22.50
2023-04-05T20:26:16.695Z,22.50
2023-04-05T20:28:53.671Z,22.50
2023-04-05T20:31:24.412Z,22.50
2023-04-05T20:34:15.356Z,22.50
2023-04-05T20:36:51.414Z,22.50
2023-04-05T20:39:19.062Z,22.50
2023-04-05T20:41:47.197Z,22.50
2023-04-05T20:44:14.365Z,22.50
2023-04-05T20:46:41.451Z,22.50
2023-04-05T20:49:08.810Z,22.40
2023-04-05T20:51:36.551Z,22.40
2023-04-05T20:54:03.828Z,22.40
2023-04-05T20:56:31.025Z,22.40
2023-04-05T20:58:58.261Z,22.40
2023-04-05T21:01:25.664Z,22.40
2023-04-05T21:03:53.557Z,22.40
2023-04-05T21:06:20.802Z,22.40
2023-04-05T21:08:47.900Z,22.40
2023-04-05T21:11:15.543Z,22.40
2023-04-05T21:13:43.521Z,22.40
2023-04-05T21:16:11.014Z,22.40
2023-04-05T21:18:38.178Z,22.40
2023-04-05T21:21:05.798Z,22.40
2023-04-05T21:23:34.492Z,22.40
2023-04-05T21:26:02.084Z,22.40
2023-04-05T21:28:29.243Z,22.30
2023-04-05T21:30:56.408Z,22.30
2023-04-05T21:33:23.778Z,22.30
2023-04-05T21:35:51.130Z,22.30
2023-04-05T21:38:18.583Z,22.30
2023-04-05T21:40:45.726Z,22.30
2023-04-05T21:43:13.439Z,22.30
2023-04-05T21:45:40.841Z,22.20
2023-04-05T21:48:08.105Z,22.30
2023-04-05T21:50:35.951Z,22.30
2023-04-05T21:53:03.177Z,22.20
2023-04-05T21:55:30.306Z,22.20
2023-04-05T21:57:57.351Z,22.20
2023-04-05T22:00:24.505Z,22.20
2023-04-05T22:02:51.832Z,22.20
2023-04-05T22:05:34.052Z,22.20
2023-04-05T22:08:06.054Z,22.20
2023-04-05T22:10:33.655Z,22.20
2023-04-05T22:13:01.040Z,22.20
2023-04-05T22:15:28.156Z,22.10
2023-04-05T22:17:55.332Z,22.20
2023-04-05T22:20:22.513Z,22.10
2023-04-05T22:22:49.541Z,22.10
2023-04-05T22:25:16.611Z,22.10
2023-04-05T22:27:43.691Z,22.10
2023-04-05T22:30:11.161Z,22.10
2023-04-05T22:32:38.324Z,22.10
2023-04-05T22:35:06.019Z,22.10
2023-04-05T22:37:36.019Z,22.10
2023-04-05T22:40:07.349Z,22.00
2023-04-05T22:42:34.536Z,22.00
2023-04-05T22:45:04.582Z,22.00
2023-04-05T22:47:31.709Z,22.00
2023-04-05T22:49:58.817Z,22.00
2023-04-05T22:52:26.211Z,22.00
2023-04-05T22:54:53.454Z,22.00
2023-04-05T22:57:20.758Z,22.00
2023-04-05T22:59:47.859Z,22.00
2023-04-05T23:02:14.923Z,22.00
2023-04-05T23:04:42.054Z,22.00
2023-04-05T23:07:09.205Z,22.00
2023-04-05T23:09:36.298Z,22.00
2023-04-05T23:12:03.454Z,22.00
2023-04-05T23:14:30.535Z,22.00
2023-04-05T23:16:57.595Z,22.00
2023-04-05T23:19:24.671Z,22.00
2023-04-05T23:21:51.757Z,22.00
2023-04-05T23:24:18.798Z,22.00
2023-04-05T23:26:45.921Z,22.00
2023-04-05T23:29:13.020Z,22.00
2023-04-05T23:31:40.080Z,22.00
2023-04-05T23:34:07.218Z,22.00
2023-04-05T23:36:34.391Z,22.00
2023-04-05T23:39:01.715Z,22.00
2023-04-05T23:41:29.019Z,22.00
2023-04-05T23:43:56.312Z,22.00
2023-04-05T23:46:23.503Z,21.90
2023-04-05T23:48:50.617Z,21.90
2023-04-05T23:51:17.759Z,21.90
2023-04-05T23:53:44.887Z,21.90
2023-04-05T23:56:12.029Z,21.90
2023-04-05T23:58:42.275Z,21.90
